Rock Camp, Ohio
Current Conditions -  °F | °C
As of 11:51 PM on Friday 21 Nov 2014 (Local Time) from KHTS Reporting Station
Clear Clear  
Wind Chill: 23°   Ceiling: Unl
Heat Index: 23°   Visibility: 10mi
Dew Point: 14°   Wind: 0mph
Humidity: 68%   Direction: NA
Pressure: 30.42"   Gusts: NA
Location:  38.52°N, 82.54°W
Report Text: KHTS 220451Z 00000KT 10SM CLR M05/M10 A3042 RMK AO2 SLP310 T10501100 400281078
Loading
Personal Weather Stations






























Interactive Weather Map New forecast layout! Learn more

10-Day Weather Forecast

Advertisements
Track Severe Weather on mobile